Time;durP1;ratioP1;P1;durP2;ratioP2;P2;SDS_P1;SDS_P2;PMS_P1;PMS_P2;Temp;Humidity;BMP_temperature;BMP_pressure;BME280_temperature;BME280_humidity;BME280_pressure;Samples;Min_cycle;Max_cycle;Signal;HPM_P1;HPM_P2
2023/05/10 00:02:02;;;;;;;1.30;0.85;;;;;;;;;;5021919;28;20033;-81
2023/05/10 00:04:27;;;;;;;1.23;0.77;;;14.50;99.90;;;;;;5030623;28;20029;-81
2023/05/10 00:06:53;;;;;;;1.15;0.68;;;;;;;;;;5030647;28;20104;-81
2023/05/10 00:09:19;;;;;;;1.15;0.60;;;14.80;99.90;;;;;;5030029;28;20029;-80
2023/05/10 00:11:45;;;;;;;1.20;0.40;;;;;;;;;;5009842;28;20018;-81
2023/05/10 00:14:12;;;;;;;1.10;0.50;;;;;;;;;;5020187;28;20417;-80
2023/05/10 00:16:38;;;;;;;1.33;0.50;;;;;;;;;;5018512;28;20402;-80
2023/05/10 00:19:04;;;;;;;1.38;0.43;;;;;;;;;;5031110;28;20037;-80
2023/05/10 00:21:30;;;;;;;0.98;0.40;;;;;;;;;;5027753;28;20489;-82
2023/05/10 00:23:56;;;;;;;1.83;0.50;;;;;;;;;;5037803;28;20045;-80
2023/05/10 00:26:22;;;;;;;1.33;0.63;;;;;;;;;;5014588;28;20034;-80
2023/05/10 00:28:48;;;;;;;0.45;0.28;;;;;;;;;;5019931;28;20240;-81
2023/05/10 00:31:14;;;;;;;1.02;0.45;;;;;;;;;;5029251;28;20037;-80
2023/05/10 00:33:41;;;;;;;0.35;0.20;;;;;;;;;;5026988;28;20021;-80
2023/05/10 00:36:07;;;;;;;0.47;0.30;;;;;;;;;;5027096;28;20092;-80
2023/05/10 00:38:33;;;;;;;0.57;0.32;;;14.40;99.90;;;;;;5025503;28;20037;-80
2023/05/10 00:40:59;;;;;;;0.73;0.35;;;;;;;;;;5020267;28;20068;-80
2023/05/10 00:43:25;;;;;;;0.68;0.40;;;;;;;;;;5025797;28;20611;-81
2023/05/10 00:45:51;;;;;;;1.55;0.52;;;;;;;;;;5023587;28;20026;-79
2023/05/10 00:48:17;;;;;;;1.10;0.40;;;;;;;;;;5026870;28;20025;-80
2023/05/10 00:50:44;;;;;;;0.73;0.40;;;15.30;99.90;;;;;;5032362;28;20026;-81
2023/05/10 00:53:10;;;;;;;0.60;0.20;;;;;;;;;;5033357;28;20337;-80
2023/05/10 00:55:37;;;;;;;1.00;0.43;;;;;;;;;;5029660;28;20038;-80
2023/05/10 00:58:03;;;;;;;1.23;0.30;;;;;;;;;;5035279;28;20041;-81
2023/05/10 01:00:29;;;;;;;1.20;0.30;;;;;;;;;;5040080;28;20029;-81
2023/05/10 01:02:55;;;;;;;1.02;0.30;;;;;;;;;;5034485;28;20030;-81
2023/05/10 01:05:21;;;;;;;0.80;0.40;;;;;;;;;;5018519;28;20034;-82
2023/05/10 01:07:47;;;;;;;0.55;0.32;;;14.50;99.90;;;;;;5019165;28;20489;-80
2023/05/10 01:10:13;;;;;;;0.40;0.30;;;14.20;99.90;;;;;;5020400;28;20534;-81
2023/05/10 01:12:41;;;;;;;2.00;0.52;;;;;;;;;;5029875;28;20026;-82
2023/05/10 01:15:11;;;;;;;0.82;0.40;;;;;;;;;;5034547;28;20144;-81
2023/05/10 01:17:38;;;;;;;1.05;0.30;;;;;;;;;;5037755;28;20032;-81
2023/05/10 01:20:04;;;;;;;0.52;0.30;;;;;;;;;;5042000;28;20041;-81
2023/05/10 01:22:51;;;;;;;0.30;0.20;;;;;;;;;;5015136;28;20200;-81
2023/05/10 01:25:17;;;;;;;0.32;0.30;;;;;;;;;;5044960;28;20099;-82
2023/05/10 01:27:52;;;;;;;0.47;0.30;;;;;;;;;;5036159;28;20038;-81
2023/05/10 01:30:24;;;;;;;0.10;0.05;;;;;;;;;;5020901;28;20028;-82
2023/05/10 01:33:09;;;;;;;0.30;0.20;;;;;;;;;;5037014;28;20048;-82
2023/05/10 01:35:42;;;;;;;1.33;0.20;;;;;;;;;;5033466;28;20022;-81
2023/05/10 01:38:10;;;;;;;0.40;0.20;;;;;;;;;;5028844;28;20033;-80
2023/05/10 01:40:40;;;;;;;0.32;0.20;;;;;;;;;;5029184;28;20032;-80
2023/05/10 01:43:16;;;;;;;0.43;0.10;;;;;;;;;;5026581;28;20033;-80
2023/05/10 01:45:51;;;;;;;0.40;0.32;;;;;;;;;;5029573;28;20025;-79
2023/05/10 01:48:19;;;;;;;2.35;0.32;;;14.10;99.90;;;;;;5033127;28;20065;-80
2023/05/10 01:50:47;;;;;;;0.38;0.13;;;;;;;;;;5025952;28;20648;-80
2023/05/10 01:53:14;;;;;;;0.50;0.20;;;14.10;99.90;;;;;;5023725;28;20026;-80
2023/05/10 01:55:43;;;;;;;0.20;0.10;;;;;;;;;;5031765;28;20087;-80
2023/05/10 01:58:13;;;;;;;0.98;0.95;;;;;;;;;;5030886;28;20457;-80
2023/05/10 02:00:50;;;;;;;0.15;0.10;;;13.80;99.90;;;;;;5025689;28;20033;-80
2023/05/10 02:03:16;;;;;;;0.45;0.20;;;;;;;;;;5036766;28;20040;-80
2023/05/10 02:05:44;;;;;;;0.47;0.20;;;;;;;;;;5030703;28;20080;-80
2023/05/10 02:08:11;;;;;;;5.78;0.22;;;13.90;99.90;;;;;;5029779;28;20528;-80
2023/05/10 02:10:38;;;;;;;0.15;0.13;;;;;;;;;;5046354;28;20109;-80
2023/05/10 02:13:04;;;;;;;0.13;0.10;;;;;;;;;;5031432;28;20472;-79
2023/05/10 02:15:31;;;;;;;0.38;0.17;;;;;;;;;;5025163;28;20412;-79
2023/05/10 02:17:58;;;;;;;0.57;0.38;;;;;;;;;;5031290;28;20021;-80
2023/05/10 02:20:25;;;;;;;0.65;0.30;;;;;;;;;;5034361;28;20017;-80
2023/05/10 02:22:52;;;;;;;1.65;0.50;;;;;;;;;;5029966;28;20028;-80
2023/05/10 02:25:19;;;;;;;0.73;0.30;;;;;;;;;;5040126;28;20401;-80
2023/05/10 02:27:47;;;;;;;0.63;0.20;;;;;;;;;;5027690;28;20033;-80
2023/05/10 02:30:13;;;;;;;0.43;0.20;;;13.80;99.90;;;;;;5020618;28;20152;-79
2023/05/10 02:32:39;;;;;;;0.30;0.30;;;;;;;;;;5024400;28;20030;-79
2023/05/10 02:35:06;;;;;;;0.32;0.25;;;;;;;;;;5023638;28;20026;-80
2023/05/10 02:37:33;;;;;;;0.70;0.30;;;;;;;;;;5024788;28;20390;-79
2023/05/10 02:39:59;;;;;;;0.45;0.20;;;;;;;;;;5032305;28;20038;-82
2023/05/10 02:42:27;;;;;;;0.43;0.20;;;;;;;;;;5026811;28;20040;-80
2023/05/10 02:44:54;;;;;;;0.30;0.10;;;;;;;;;;5025669;28;20095;-82
2023/05/10 02:47:20;;;;;;;0.15;0.15;;;;;;;;;;5019590;28;20604;-80
2023/05/10 02:49:46;;;;;;;0.13;0.13;;;;;;;;;;5029127;28;20021;-80
2023/05/10 02:52:16;;;;;;;0.55;0.30;;;;;;;;;;5027074;28;20036;-80
2023/05/10 02:54:46;;;;;;;0.22;0.10;;;;;;;;;;5031931;28;20063;-80
2023/05/10 02:57:16;;;;;;;0.52;0.28;;;;;;;;;;5027755;28;20021;-80
2023/05/10 02:59:45;;;;;;;0.47;0.20;;;;;;;;;;5032489;28;20037;-82
2023/05/10 03:02:12;;;;;;;0.38;0.20;;;13.60;99.90;;;;;;5030122;28;20030;-80
2023/05/10 03:04:38;;;;;;;0.30;0.20;;;;;;;;;;5026660;28;20091;-81
2023/05/10 03:07:04;;;;;;;0.60;0.40;;;;;;;;;;5024400;28;20033;-81
2023/05/10 03:09:30;;;;;;;0.45;0.30;;;;;;;;;;5028513;28;20273;-81
2023/05/10 03:12:09;;;;;;;1.17;0.68;;;;;;;;;;5013363;28;20552;-81
2023/05/10 03:14:43;;;;;;;0.98;0.50;;;;;;;;;;5017594;28;20060;-80
2023/05/10 03:17:09;;;;;;;0.55;0.35;;;;;;;;;;5027689;28;20276;-79
2023/05/10 03:19:54;;;;;;;0.88;0.52;;;;;;;;;;5027156;28;20055;-81
2023/05/10 03:22:30;;;;;;;0.30;0.25;;;13.40;99.90;;;;;;5027066;28;20022;-82
2023/05/10 03:25:00;;;;;;;0.90;0.40;;;;;;;;;;5030667;28;20029;-80
2023/05/10 03:27:27;;;;;;;0.88;0.30;;;;;;;;;;5027271;28;20042;-80
2023/05/10 03:29:54;;;;;;;0.70;0.50;;;;;;;;;;5016583;28;20026;-82
2023/05/10 03:32:20;;;;;;;1.50;0.50;;;;;;;;;;5024177;28;20018;-81
2023/05/10 03:34:46;;;;;;;3.50;0.57;;;;;;;;;;5021137;28;20027;-81
2023/05/10 03:37:12;;;;;;;0.90;0.57;;;;;;;;;;5029827;28;20505;-81
2023/05/10 03:39:38;;;;;;;1.05;0.70;;;;;;;;;;5026584;28;20163;-81
2023/05/10 03:42:04;;;;;;;3.00;1.95;;;;;;;;;;5019224;28;20026;-80
2023/05/10 03:44:29;;;;;;;1.55;1.00;;;;;;;;;;5011091;28;20030;-81
2023/05/10 03:46:56;;;;;;;3.22;0.60;;;;;;;;;;5022465;28;20074;-81
2023/05/10 03:49:22;;;;;;;0.60;0.50;;;;;;;;;;5034413;28;20026;-80
2023/05/10 03:51:48;;;;;;;1.45;1.00;;;;;;;;;;5018517;28;20033;-81
2023/05/10 03:54:14;;;;;;;3.30;0.68;;;;;;;;;;5019173;28;20140;-81
2023/05/10 03:56:40;;;;;;;1.67;0.88;;;;;;;;;;5016156;28;20055;-82
2023/05/10 03:59:07;;;;;;;1.42;0.80;;;;;;;;;;5016176;28;20080;-80
2023/05/10 04:01:33;;;;;;;1.17;0.93;;;;;;;;;;5015548;28;20018;-81
2023/05/10 04:03:59;;;;;;;1.73;1.08;;;;;;;;;;5032195;28;20471;-81
2023/05/10 04:06:25;;;;;;;1.08;0.77;;;;;;;;;;5020235;28;20025;-80
2023/05/10 04:08:51;;;;;;;2.17;1.05;;;;;;;;;;5015502;28;21395;-80
2023/05/10 04:11:17;;;;;;;1.60;1.02;;;;;;;;;;5006496;28;20026;-81
2023/05/10 04:13:43;;;;;;;2.78;1.10;;;;;;;;;;5016598;28;20053;-80
2023/05/10 04:16:09;;;;;;;2.60;1.05;;;13.80;99.90;;;;;;5020747;28;20053;-82
2023/05/10 04:18:35;;;;;;;1.67;1.00;;;;;;;;;;5028436;28;20069;-81
2023/05/10 04:21:01;;;;;;;1.90;1.05;;;14.00;99.90;;;;;;5018483;28;20033;-82
2023/05/10 04:23:29;;;;;;;1.13;0.63;;;13.90;99.90;;;;;;5027180;28;20052;-81
2023/05/10 04:26:02;;;;;;;1.42;0.85;;;;;;;;;;5022361;28;20029;-82
2023/05/10 04:28:28;;;;;;;2.53;1.48;;;;;;;;;;5027904;28;20064;-80
2023/05/10 04:30:54;;;;;;;1.42;0.80;;;;;;;;;;5023475;28;20073;-82
2023/05/10 04:33:20;;;;;;;0.82;0.60;;;;;;;;;;5014154;28;20580;-82
2023/05/10 04:35:46;;;;;;;1.27;0.80;;;;;;;;;;5013864;28;20227;-80
2023/05/10 04:38:12;;;;;;;1.35;0.68;;;;;;;;;;5011746;28;20163;-81
2023/05/10 04:40:38;;;;;;;1.88;0.80;;;;;;;;;;5022205;28;20029;-81
2023/05/10 04:43:04;;;;;;;2.28;1.20;;;;;;;;;;5016197;28;20423;-80
2023/05/10 04:45:30;;;;;;;2.95;1.33;;;;;;;;;;5015989;28;20616;-81
2023/05/10 04:47:56;;;;;;;2.70;1.25;;;;;;;;;;5018501;28;20407;-80
2023/05/10 04:50:22;;;;;;;1.48;1.00;;;;;;;;;;5012607;28;20075;-81
2023/05/10 04:52:48;;;;;;;1.55;1.20;;;;;;;;;;5018034;28;20100;-81
2023/05/10 04:55:14;;;;;;;2.28;0.98;;;;;;;;;;5022646;28;20187;-81
2023/05/10 04:57:40;;;;;;;2.20;1.08;;;;;;;;;;5028366;28;20030;-80
2023/05/10 05:00:06;;;;;;;2.33;1.25;;;;;;;;;;5020288;28;20061;-81
2023/05/10 05:02:32;;;;;;;1.88;1.23;;;;;;;;;;5032102;28;20036;-82
2023/05/10 05:04:58;;;;;;;2.00;1.20;;;;;;;;;;5047486;28;20037;-82
2023/05/10 05:07:24;;;;;;;2.05;1.33;;;;;;;;;;5046085;28;20095;-81
2023/05/10 05:09:50;;;;;;;1.58;0.88;;;;;;;;;;5045192;28;20357;-82
2023/05/10 05:12:16;;;;;;;4.57;0.98;;;;;;;;;;5023883;28;20306;-80
2023/05/10 05:14:42;;;;;;;1.60;0.98;;;;;;;;;;5021344;28;20069;-80
2023/05/10 05:17:08;;;;;;;1.85;1.00;;;15.20;99.90;;;;;;5024972;28;20037;-81
2023/05/10 05:19:34;;;;;;;1.35;0.93;;;;;;;;;;5026004;28;20025;-80
2023/05/10 05:22:00;;;;;;;2.00;1.00;;;;;;;;;;5023584;28;20091;-80
2023/05/10 05:24:26;;;;;;;1.58;1.25;;;;;;;;;;5021245;28;20033;-80
2023/05/10 05:26:51;;;;;;;1.52;1.15;;;16.10;99.90;;;;;;5027607;28;20025;-80
2023/05/10 05:29:17;;;;;;;1.50;0.98;;;16.10;99.90;;;;;;5023456;28;20025;-80
2023/05/10 05:31:42;;;;;;;2.25;1.27;;;15.20;99.90;;;;;;5032104;28;20140;-80
2023/05/10 05:34:08;;;;;;;1.88;1.08;;;;;;;;;;5030329;28;20045;-80
2023/05/10 05:36:38;;;;;;;1.63;0.90;;;;;;;;;;5028840;28;20643;-80
2023/05/10 05:39:03;;;;;;;2.25;1.55;;;14.80;99.90;;;;;;5027358;28;20025;-80
2023/05/10 05:41:29;;;;;;;1.58;0.90;;;;;;;;;;5031728;28;20393;-80
2023/05/10 05:43:55;;;;;;;1.67;1.02;;;;;;;;;;5028071;28;20371;-80
2023/05/10 05:46:21;;;;;;;2.40;1.10;;;;;;;;;;5029324;28;20401;-80
2023/05/10 05:48:47;;;;;;;1.67;1.15;;;;;;;;;;5028907;28;20033;-81
2023/05/10 05:51:13;;;;;;;2.20;1.33;;;14.50;99.90;;;;;;5028025;28;20497;-80
2023/05/10 05:53:39;;;;;;;2.63;1.73;;;;;;;;;;5025932;28;20051;-81
2023/05/10 05:56:05;;;;;;;1.52;1.20;;;;;;;;;;5022093;28;20030;-79
2023/05/10 05:58:31;;;;;;;3.20;1.80;;;;;;;;;;5026814;28;20030;-81
2023/05/10 06:00:57;;;;;;;1.30;0.90;;;;;;;;;;5029884;28;20025;-81
2023/05/10 06:03:24;;;;;;;2.28;1.02;;;;;;;;;;5031276;28;20057;-80
2023/05/10 06:05:50;;;;;;;5.15;0.90;;;;;;;;;;5027770;28;20022;-80
2023/05/10 06:08:16;;;;;;;1.58;0.90;;;;;;;;;;5033140;28;20473;-80
2023/05/10 06:10:42;;;;;;;2.22;1.10;;;;;;;;;;5024248;28;20108;-80
2023/05/10 06:13:08;;;;;;;1.90;0.88;;;;;;;;;;5028483;28;20026;-80
2023/05/10 06:15:34;;;;;;;2.22;1.23;;;;;;;;;;5020658;28;20508;-80
2023/05/10 06:18:00;;;;;;;0.95;0.60;;;;;;;;;;5031247;28;20025;-80
2023/05/10 06:20:26;;;;;;;1.25;0.80;;;;;;;;;;5017570;28;20036;-81
2023/05/10 06:22:52;;;;;;;1.35;0.68;;;;;;;;;;5026209;28;20405;-80
2023/05/10 06:25:18;;;;;;;1.13;0.73;;;;;;;;;;5024848;28;20061;-80
2023/05/10 06:27:44;;;;;;;1.20;0.63;;;17.20;99.90;;;;;;5025845;28;20501;-80
2023/05/10 06:30:11;;;;;;;1.58;0.73;;;16.80;99.90;;;;;;5024512;28;20041;-81
2023/05/10 06:32:37;;;;;;;0.88;0.47;;;;;;;;;;5027451;28;20114;-81
2023/05/10 06:35:03;;;;;;;1.00;0.75;;;;;;;;;;5028910;28;20021;-80
2023/05/10 06:37:29;;;;;;;1.15;0.63;;;;;;;;;;5025053;28;20029;-83
2023/05/10 06:39:55;;;;;;;1.63;0.80;;;;;;;;;;5028319;28;20493;-82
2023/05/10 06:42:21;;;;;;;4.22;0.40;;;;;;;;;;5025971;28;20087;-81
2023/05/10 06:44:47;;;;;;;0.80;0.50;;;;;;;;;;5026386;28;20025;-81
2023/05/10 06:47:13;;;;;;;4.32;0.77;;;;;;;;;;5026366;28;20025;-82
2023/05/10 06:49:39;;;;;;;1.20;0.50;;;;;;;;;;5027668;28;20030;-81
2023/05/10 06:52:05;;;;;;;1.65;0.68;;;;;;;;;;5032536;28;20032;-81
2023/05/10 06:54:31;;;;;;;3.72;0.75;;;16.90;99.90;;;;;;5052934;28;20030;-81
2023/05/10 06:56:57;;;;;;;2.70;0.63;;;;;;;;;;5035278;28;20030;-80
2023/05/10 06:59:23;;;;;;;1.20;0.80;;;;;;;;;;5040977;28;20061;-81
2023/05/10 07:01:50;;;;;;;1.77;0.82;;;;;;;;;;5050493;28;20036;-82
2023/05/10 07:04:17;;;;;;;0.95;0.60;;;;;;;;;;5045620;28;20033;-81
2023/05/10 07:06:43;;;;;;;1.63;0.80;;;;;;;;;;5048729;28;20036;-82
2023/05/10 07:09:09;;;;;;;1.25;0.80;;;;;;;;;;5028425;28;20029;-82
2023/05/10 07:11:37;;;;;;;1.48;0.80;;;;;;;;;;5028137;28;20044;-81
2023/05/10 07:14:03;;;;;;;1.02;0.70;;;;;;;;;;5030976;28;20108;-81
2023/05/10 07:16:29;;;;;;;2.05;0.90;;;;;;;;;;5032207;28;20076;-81
2023/05/10 07:18:55;;;;;;;2.50;1.00;;;;;;;;;;5036497;28;20045;-82
2023/05/10 07:21:23;;;;;;;3.28;1.15;;;;;;;;;;5029812;28;20034;-82
2023/05/10 07:23:49;;;;;;;2.90;1.10;;;;;;;;;;5034423;28;20041;-82
2023/05/10 07:26:16;;;;;;;1.15;0.70;;;;;;;;;;5031838;28;20025;-81
2023/05/10 07:28:42;;;;;;;1.70;0.70;;;;;;;;;;5033637;28;20034;-84
2023/05/10 07:31:08;;;;;;;1.60;0.70;;;;;;;;;;5033590;28;20037;-81
2023/05/10 07:33:34;;;;;;;1.13;0.52;;;;;;;;;;5034736;28;20025;-82
2023/05/10 07:36:00;;;;;;;0.93;0.50;;;;;;;;;;5030392;28;20482;-81
2023/05/10 07:38:26;;;;;;;0.90;0.40;;;;;;;;;;5028584;28;20109;-83
2023/05/10 07:40:52;;;;;;;1.38;0.60;;;;;;;;;;5032886;28;20533;-83
2023/05/10 07:43:18;;;;;;;4.53;1.27;;;;;;;;;;5033933;28;20053;-81
2023/05/10 07:45:44;;;;;;;4.93;0.90;;;;;;;;;;5031152;28;20040;-82
2023/05/10 07:48:10;;;;;;;1.50;0.93;;;;;;;;;;5032145;28;20025;-81
2023/05/10 07:50:36;;;;;;;1.52;0.90;;;;;;;;;;5030303;28;20404;-82
2023/05/10 07:53:02;;;;;;;1.83;0.80;;;;;;;;;;5033412;28;20041;-84
2023/05/10 07:55:28;;;;;;;1.58;0.95;;;;;;;;;;5030006;28;20029;-83
2023/05/10 07:57:54;;;;;;;4.57;0.82;;;;;;;;;;5030026;28;20047;-81
2023/05/10 08:00:20;;;;;;;1.67;0.98;;;18.40;99.90;;;;;;5035132;28;20029;-80
2023/05/10 08:02:46;;;;;;;0.95;0.60;;;;;;;;;;5032699;28;20029;-83
2023/05/10 08:05:13;;;;;;;2.08;1.20;;;;;;;;;;5031967;28;20030;-82
2023/05/10 08:07:39;;;;;;;2.10;0.70;;;;;;;;;;5030820;28;20025;-85
2023/05/10 08:10:05;;;;;;;1.45;0.73;;;17.20;99.90;;;;;;5028723;28;20112;-83
2023/05/10 08:12:31;;;;;;;1.02;0.60;;;;;;;;;;5029266;28;21712;-83
2023/05/10 08:14:57;;;;;;;1.42;0.65;;;17.00;99.90;;;;;;5029388;28;20021;-81
2023/05/10 08:17:23;;;;;;;1.55;0.57;;;;;;;;;;5030595;28;20121;-84
2023/05/10 08:19:49;;;;;;;2.97;0.73;;;;;;;;;;5031753;28;20478;-83
2023/05/10 08:22:15;;;;;;;1.23;0.80;;;;;;;;;;5028711;28;20033;-80
2023/05/10 08:24:41;;;;;;;1.38;0.65;;;;;;;;;;5026864;28;20026;-81
2023/05/10 08:27:08;;;;;;;1.35;0.60;;;;;;;;;;5027029;28;20034;-81
2023/05/10 08:29:34;;;;;;;1.13;0.50;;;;;;;;;;5031091;28;20097;-83
2023/05/10 08:32:00;;;;;;;1.90;0.50;;;;;;;;;;5026650;28;20030;-81
2023/05/10 08:34:26;;;;;;;1.45;0.77;;;;;;;;;;5033048;28;20021;-80
2023/05/10 08:36:52;;;;;;;0.57;0.40;;;;;;;;;;5029947;28;20497;-80
2023/05/10 08:39:18;;;;;;;1.23;0.68;;;;;;;;;;5024068;28;20116;-81
2023/05/10 08:41:46;;;;;;;1.10;0.68;;;16.50;99.90;;;;;;5028913;28;20045;-81
2023/05/10 08:44:12;;;;;;;3.50;0.55;;;;;;;;;;5029447;28;20103;-81
2023/05/10 08:46:43;;;;;;;0.98;0.63;;;;;;;;;;5025817;28;20042;-80
2023/05/10 08:49:16;;;;;;;3.50;0.40;;;17.60;99.90;;;;;;5031851;28;20090;-81
2023/05/10 08:51:42;;;;;;;;;;;;;;;;;;5023505;28;20076;-82
2023/05/10 08:54:08;;;;;;;3.05;0.30;;;;;;;;;;5027912;28;19909;-82
2023/05/10 08:56:34;;;;;;;1.08;0.57;;;;;;;;;;5029520;28;20022;-81
2023/05/10 08:59:00;;;;;;;1.25;0.50;;;;;;;;;;5030319;28;20030;-80
2023/05/10 09:01:27;;;;;;;0.73;0.47;;;19.40;99.90;;;;;;5026369;28;20030;-83
2023/05/10 09:03:53;;;;;;;3.00;1.33;;;;;;;;;;5027151;28;20096;-84
2023/05/10 09:06:19;;;;;;;1.08;0.40;;;;;;;;;;5021698;28;20300;-82
2023/05/10 09:08:45;;;;;;;0.80;0.40;;;;;;;;;;5016665;28;20033;-83
2023/05/10 09:11:12;;;;;;;0.75;0.50;;;19.60;99.90;;;;;;5029976;28;20045;-81
2023/05/10 09:13:38;;;;;;;0.98;0.65;;;;;;;;;;5026039;28;20108;-83
2023/05/10 09:16:05;;;;;;;1.25;0.60;;;;;;;;;;5035780;28;20025;-82
2023/05/10 09:18:31;;;;;;;1.05;0.65;;;;;;;;;;5040161;28;20025;-82
2023/05/10 09:20:57;;;;;;;1.23;0.73;;;;;;;;;;5030190;28;20035;-81
2023/05/10 09:23:23;;;;;;;1.35;0.77;;;;;;;;;;5031757;28;20038;-82
2023/05/10 09:26:03;;;;;;;2.78;0.73;;;16.80;99.90;;;;;;5031171;28;20037;-82
2023/05/10 09:28:49;;;;;;;0.90;0.50;;;16.70;99.90;;;;;;5033357;28;20112;-81
2023/05/10 09:31:15;;;;;;;1.30;0.60;;;;;;;;;;5033300;28;20049;-81
2023/05/10 09:33:45;;;;;;;1.73;0.90;;;16.80;99.90;;;;;;5035881;28;20022;-80
2023/05/10 09:36:12;;;;;;;1.42;0.68;;;;;;;;;;5035748;28;20032;-81
2023/05/10 09:38:49;;;;;;;2.40;1.35;;;18.40;99.90;;;;;;5032979;28;20512;-82
2023/05/10 09:41:20;;;;;;;1.73;0.98;;;19.30;99.90;;;;;;5033790;28;20040;-81
2023/05/10 09:43:46;;;;;;;2.35;1.15;;;;;;;;;;5028514;28;20045;-82
2023/05/10 09:46:12;;;;;;;1.40;0.80;;;;;;;;;;5034641;28;20030;-82
2023/05/10 09:48:43;;;;;;;2.40;1.23;;;19.70;99.90;;;;;;5035340;28;20030;-83
2023/05/10 09:51:09;;;;;;;2.10;0.90;;;;;;;;;;5030112;28;20021;-81
2023/05/10 09:53:35;;;;;;;1.50;0.68;;;;;;;;;;5028149;28;20018;-84
2023/05/10 09:56:01;;;;;;;3.42;0.55;;;;;;;;;;5026709;28;20032;-82
2023/05/10 09:58:27;;;;;;;1.25;0.43;;;;;;;;;;5031997;28;20061;-83
2023/05/10 10:00:53;;;;;;;0.43;0.32;;;18.50;99.90;;;;;;5026822;28;20029;-82
2023/05/10 10:03:22;;;;;;;0.98;0.52;;;19.90;99.90;;;;;;5029295;28;20385;-82
2023/05/10 10:05:49;;;;;;;1.88;0.60;;;;;;;;;;5030203;28;20504;-82
2023/05/10 10:08:15;;;;;;;2.13;0.60;;;19.00;99.90;;;;;;5033808;28;20033;-83
2023/05/10 10:10:43;;;;;;;1.25;0.50;;;;;;;;;;5030025;28;20022;-83
2023/05/10 10:13:09;;;;;;;0.70;0.38;;;19.40;99.90;;;;;;5032646;28;20021;-82
2023/05/10 10:15:36;;;;;;;0.80;0.55;;;;;;;;;;5027080;28;20018;-82
2023/05/10 10:18:03;;;;;;;1.48;0.50;;;;;;;;;;5029317;28;20490;-83
2023/05/10 10:20:30;;;;;;;0.52;0.32;;;;;;;;;;5030573;28;20441;-82
2023/05/10 10:22:56;;;;;;;0.98;0.40;;;;;;;;;;5023259;28;20053;-82
2023/05/10 10:25:22;;;;;;;2.05;1.10;;;;;;;;;;5034865;28;20068;-84
2023/05/10 10:27:54;;;;;;;1.85;0.30;;;19.40;99.90;;;;;;5029097;28;20044;-82
2023/05/10 10:30:42;;;;;;;1.60;0.50;;;19.40;99.90;;;;;;5027736;28;20116;-82
2023/05/10 10:33:47;;;;;;;0.55;0.25;;;19.60;99.90;;;;;;5030688;28;20085;-83
2023/05/10 10:36:13;;;;;;;0.85;0.30;;;;;;;;;;5029418;28;20084;-81
2023/05/10 10:38:48;;;;;;;1.17;0.30;;;19.70;99.90;;;;;;5031773;28;20157;-81
2023/05/10 10:41:33;;;;;;;0.40;0.30;;;19.50;99.90;;;;;;5028814;28;20056;-82
2023/05/10 10:44:30;;;;;;;1.33;0.40;;;19.50;99.90;;;;;;5031660;28;20029;-83
2023/05/10 10:47:11;;;;;;;0.50;0.30;;;19.90;99.90;;;;;;5019710;28;20030;-82
2023/05/10 10:49:57;;;;;;;1.13;0.30;;;;;;;;;;5022554;28;20134;-83
2023/05/10 10:52:27;;;;;;;0.65;0.30;;;19.10;99.90;;;;;;5019000;28;20594;-82
2023/05/10 10:55:07;;;;;;;0.32;0.20;;;19.80;99.90;;;;;;5049390;28;20021;-83
2023/05/10 10:57:43;;;;;;;1.13;0.30;;;19.10;99.90;;;;;;5045214;28;20021;-81
2023/05/10 11:00:28;;;;;;;0.80;0.20;;;19.20;99.90;;;;;;5050464;28;20048;-84
2023/05/10 11:02:57;;;;;;;1.95;0.85;;;19.20;99.90;;;;;;5029802;28;20039;-83
2023/05/10 11:05:29;;;;;;;0.75;0.40;;;;;;;;;;5026112;28;20037;-83
2023/05/10 11:07:56;;;;;;;1.02;0.20;;;20.40;99.90;;;;;;5029883;28;20033;-84
2023/05/10 11:10:23;;;;;;;0.90;0.50;;;;;;;;;;5032198;28;20045;-84
2023/05/10 11:13:07;;;;;;;0.20;0.13;;;20.00;99.90;;;;;;5032921;28;20084;-82
2023/05/10 11:15:38;;;;;;;0.50;0.20;;;20.70;99.90;;;;;;5030623;28;20191;-82
2023/05/10 11:18:24;;;;;;;0.73;0.20;;;20.10;99.90;;;;;;5034275;28;20401;-86
2023/05/10 11:21:03;;;;;;;0.40;0.20;;;21.30;99.90;;;;;;5029721;28;20021;-83
2023/05/10 11:23:33;;;;;;;0.40;0.20;;;;;;;;;;5026241;28;20516;-81
2023/05/10 11:26:01;;;;;;;0.47;0.20;;;;;;;;;;5028237;28;20033;-83
2023/05/10 11:28:28;;;;;;;0.55;0.35;;;;;;;;;;5026797;28;20022;-82
2023/05/10 11:30:54;;;;;;;0.45;0.30;;;21.00;99.90;;;;;;5018711;28;20024;-83
2023/05/10 11:33:20;;;;;;;1.35;0.30;;;;;;;;;;5019456;28;20133;-80
2023/05/10 11:35:46;;;;;;;0.47;0.28;;;;;;;;;;5021131;28;20022;-82
2023/05/10 11:38:13;;;;;;;3.90;0.20;;;21.00;99.90;;;;;;5028016;28;20496;-81
2023/05/10 11:40:39;;;;;;;0.30;0.10;;;;;;;;;;5017995;28;20458;-82
2023/05/10 11:43:05;;;;;;;1.75;0.20;;;;;;;;;;5030141;28;20056;-81
2023/05/10 11:45:35;;;;;;;1.40;0.30;;;;;;;;;;5030677;28;20025;-82
2023/05/10 11:48:01;;;;;;;0.30;0.22;;;;;;;;;;5028876;28;20033;-84
2023/05/10 11:50:28;;;;;;;0.20;0.17;;;;;;;;;;5024874;28;20057;-82
2023/05/10 11:52:55;;;;;;;0.88;0.20;;;20.00;99.90;;;;;;5031975;28;20026;-84
2023/05/10 11:55:21;;;;;;;2.40;0.47;;;;;;;;;;5032706;28;20028;-82
2023/05/10 11:57:47;;;;;;;1.85;0.80;;;;;;;;;;5036493;28;20371;-84
2023/05/10 12:00:14;;;;;;;0.60;0.22;;;19.80;99.90;;;;;;5018229;28;20868;-85
2023/05/10 12:02:40;;;;;;;1.52;0.55;;;;;;;;;;5034304;28;20029;-82
2023/05/10 12:05:06;;;;;;;0.90;0.20;;;18.80;99.90;;;;;;5030230;28;20469;-82
2023/05/10 12:07:32;;;;;;;0.28;0.20;;;;;;;;;;5027741;28;20033;-82
2023/05/10 12:10:10;;;;;;;1.58;0.20;;;17.90;99.90;;;;;;5026387;28;20030;-81
2023/05/10 12:12:41;;;;;;;0.35;0.20;;;;;;;;;;5027212;28;20194;-83
2023/05/10 12:15:11;;;;;;;0.75;0.40;;;;;;;;;;5026957;28;20025;-84
2023/05/10 12:17:39;;;;;;;0.70;0.30;;;;;;;;;;5019474;28;20036;-83
2023/05/10 12:20:18;;;;;;;0.77;0.30;;;;;;;;;;5025131;28;20111;-82
2023/05/10 12:22:48;;;;;;;1.25;0.38;;;;;;;;;;5024684;28;20034;-82
2023/05/10 12:25:14;;;;;;;0.75;0.40;;;;;;;;;;5026627;28;20075;-84
2023/05/10 12:27:40;;;;;;;1.00;0.45;;;;;;;;;;5028712;28;20018;-84
2023/05/10 12:30:06;;;;;;;0.35;0.20;;;;;;;;;;5023506;28;20048;-88
2023/05/10 12:32:42;;;;;;;0.50;0.30;;;;;;;;;;5021454;28;20029;-83
2023/05/10 12:35:08;;;;;;;2.00;0.30;;;;;;;;;;5024385;28;20040;-81
2023/05/10 12:37:38;;;;;;;0.88;0.38;;;;;;;;;;5017268;28;20029;-80
2023/05/10 12:40:06;;;;;;;0.88;0.50;;;18.80;99.90;;;;;;5014113;28;20409;-84
2023/05/10 12:42:32;;;;;;;0.20;0.20;;;;;;;;;;5016475;28;20029;-85
2023/05/10 12:44:58;;;;;;;0.57;0.20;;;;;;;;;;5007685;28;20405;-84
2023/05/10 12:47:24;;;;;;;4.70;0.55;;;;;;;;;;5029747;28;20083;-81
2023/05/10 12:49:51;;;;;;;0.95;0.40;;;19.00;99.90;;;;;;5024117;28;20081;-80
2023/05/10 12:52:17;;;;;;;1.75;0.32;;;;;;;;;;5014336;28;21682;-80
2023/05/10 12:54:42;;;;;;;1.10;0.30;;;;;;;;;;5030198;28;20025;-80
2023/05/10 12:57:08;;;;;;;0.63;0.17;;;18.00;99.90;;;;;;5029936;28;20036;-81
2023/05/10 12:59:35;;;;;;;5.28;0.20;;;;;;;;;;5031558;28;20031;-80
2023/05/10 13:02:01;;;;;;;0.63;0.30;;;;;;;;;;5025033;28;20025;-81
2023/05/10 13:04:27;;;;;;;1.00;0.40;;;;;;;;;;5024866;28;20030;-83
2023/05/10 13:06:55;;;;;;;0.82;0.30;;;;;;;;;;5015509;28;20116;-86
2023/05/10 13:09:22;;;;;;;3.50;0.20;;;;;;;;;;5025208;28;20026;-82
2023/05/10 13:11:49;;;;;;;0.73;0.30;;;16.40;99.90;;;;;;5034109;28;20052;-80
2023/05/10 13:14:15;;;;;;;1.50;0.30;;;;;;;;;;5039912;28;20280;-81
2023/05/10 13:16:40;;;;;;;0.80;0.65;;;;;;;;;;5026959;28;20037;-81
2023/05/10 13:19:06;;;;;;;0.50;0.20;;;16.70;99.90;;;;;;5030546;28;20440;-81
2023/05/10 13:21:32;;;;;;;1.17;0.30;;;;;;;;;;5029990;28;20460;-80
2023/05/10 13:23:58;;;;;;;0.13;0.13;;;;;;;;;;5022750;28;20557;-81
2023/05/10 13:26:25;;;;;;;0.22;0.22;;;;;;;;;;5031346;28;20049;-80
2023/05/10 13:28:51;;;;;;;0.88;0.30;;;;;;;;;;5028959;28;20021;-81
2023/05/10 13:31:17;;;;;;;0.55;0.10;;;;;;;;;;5020620;28;20021;-84
2023/05/10 13:33:43;;;;;;;0.30;0.10;;;;;;;;;;5017566;28;20152;-82
2023/05/10 13:36:09;;;;;;;0.38;0.28;;;;;;;;;;5030706;28;20114;-82
2023/05/10 13:38:35;;;;;;;0.75;0.22;;;;;;;;;;5027916;28;20029;-81
2023/05/10 13:41:01;;;;;;;1.13;0.25;;;;;;;;;;5026630;28;20029;-84
2023/05/10 13:43:27;;;;;;;0.75;0.35;;;;;;;;;;5027080;28;20084;-86
2023/05/10 13:45:53;;;;;;;0.50;0.28;;;;;;;;;;5028506;28;20041;-83
2023/05/10 13:48:19;;;;;;;0.50;0.30;;;;;;;;;;5020919;28;20302;-83
2023/05/10 13:50:46;;;;;;;0.52;0.32;;;;;;;;;;5029633;28;20029;-85
2023/05/10 13:53:12;;;;;;;0.30;0.20;;;;;;;;;;5023080;28;20088;-83
2023/05/10 13:55:38;;;;;;;0.50;0.30;;;;;;;;;;5026652;28;20029;-82
2023/05/10 13:58:04;;;;;;;0.30;0.20;;;;;;;;;;5031257;28;20646;-82
2023/05/10 14:00:30;;;;;;;1.17;0.40;;;;;;;;;;5021963;28;20234;-81
2023/05/10 14:02:56;;;;;;;0.95;0.20;;;;;;;;;;5023900;28;20045;-83
2023/05/10 14:05:23;;;;;;;0.40;0.22;;;18.70;99.90;;;;;;5023320;28;20167;-82
2023/05/10 14:07:49;;;;;;;0.88;0.40;;;;;;;;;;5019081;28;20064;-81
2023/05/10 14:10:15;;;;;;;3.90;0.50;;;;;;;;;;5020365;28;20017;-80
2023/05/10 14:12:41;;;;;;;0.80;0.30;;;;;;;;;;5023648;28;20108;-82
2023/05/10 14:15:07;;;;;;;3.40;0.47;;;18.50;99.90;;;;;;5023981;28;20033;-82
2023/05/10 14:17:33;;;;;;;1.88;0.35;;;;;;;;;;5018634;28;20014;-82
2023/05/10 14:19:59;;;;;;;3.13;0.40;;;;;;;;;;5020266;28;20041;-84